sensor_id;sensor_type;location;lat;lon;timestamp;temperature;humidity
56725;DHT22;42608;52.776;6.968;2022-10-29T00:01:11;14.60;99.90
56725;DHT22;42608;52.776;6.968;2022-10-29T00:03:37;14.60;99.90
56725;DHT22;42608;52.776;6.968;2022-10-29T00:06:04;14.60;99.90
56725;DHT22;42608;52.776;6.968;2022-10-29T00:08:31;14.50;99.90
56725;DHT22;42608;52.776;6.968;2022-10-29T00:11:10;14.50;99.90
56725;DHT22;42608;52.776;6.968;2022-10-29T00:13:35;14.50;99.90
56725;DHT22;42608;52.776;6.968;2022-10-29T00:16:05;14.50;99.90
56725;DHT22;42608;52.776;6.968;2022-10-29T00:18:31;14.50;99.90
56725;DHT22;42608;52.776;6.968;2022-10-29T00:21:00;14.40;99.90
56725;DHT22;42608;52.776;6.968;2022-10-29T00:23:26;14.40;99.90
56725;DHT22;42608;52.776;6.968;2022-10-29T00:25:55;14.40;99.90
56725;DHT22;42608;52.776;6.968;2022-10-29T00:28:21;14.40;99.90
56725;DHT22;42608;52.776;6.968;2022-10-29T00:30:46;14.40;99.90
56725;DHT22;42608;52.776;6.968;2022-10-29T00:33:12;14.40;99.90
56725;DHT22;42608;52.776;6.968;2022-10-29T00:35:37;14.40;99.90
56725;DHT22;42608;52.776;6.968;2022-10-29T00:38:03;14.40;99.90
56725;DHT22;42608;52.776;6.968;2022-10-29T00:40:29;14.40;99.90
56725;DHT22;42608;52.776;6.968;2022-10-29T00:43:10;14.30;99.90
56725;DHT22;42608;52.776;6.968;2022-10-29T00:45:36;14.40;99.90
56725;DHT22;42608;52.776;6.968;2022-10-29T00:48:04;14.30;99.90
56725;DHT22;42608;52.776;6.968;2022-10-29T00:50:29;14.30;99.90
56725;DHT22;42608;52.776;6.968;2022-10-29T00:52:55;14.30;99.90
56725;DHT22;42608;52.776;6.968;2022-10-29T00:55:21;14.30;99.90
56725;DHT22;42608;52.776;6.968;2022-10-29T00:57:48;14.20;99.90
56725;DHT22;42608;52.776;6.968;2022-10-29T01:00:16;14.30;99.90
56725;DHT22;42608;52.776;6.968;2022-10-29T01:02:42;14.20;99.90
56725;DHT22;42608;52.776;6.968;2022-10-29T01:05:08;14.20;99.90
56725;DHT22;42608;52.776;6.968;2022-10-29T01:07:35;14.20;99.90
56725;DHT22;42608;52.776;6.968;2022-10-29T01:10:01;14.20;99.90
56725;DHT22;42608;52.776;6.968;2022-10-29T01:25:24;14.10;99.90
56725;DHT22;42608;52.776;6.968;2022-10-29T01:32:50;14.00;99.90
56725;DHT22;42608;52.776;6.968;2022-10-29T01:35:18;14.00;99.90
56725;DHT22;42608;52.776;6.968;2022-10-29T01:40:29;14.00;99.90
56725;DHT22;42608;52.776;6.968;2022-10-29T01:43:19;14.00;99.90
56725;DHT22;42608;52.776;6.968;2022-10-29T01:45:48;14.00;99.90
56725;DHT22;42608;52.776;6.968;2022-10-29T01:48:15;14.00;99.90
56725;DHT22;42608;52.776;6.968;2022-10-29T01:50:44;14.00;99.90
56725;DHT22;42608;52.776;6.968;2022-10-29T01:53:10;14.00;99.90
56725;DHT22;42608;52.776;6.968;2022-10-29T01:55:36;13.90;99.90
56725;DHT22;42608;52.776;6.968;2022-10-29T01:58:03;14.00;99.90
56725;DHT22;42608;52.776;6.968;2022-10-29T02:00:31;13.90;99.90
56725;DHT22;42608;52.776;6.968;2022-10-29T02:05:31;13.90;99.90
56725;DHT22;42608;52.776;6.968;2022-10-29T02:10:32;13.80;99.90
56725;DHT22;42608;52.776;6.968;2022-10-29T02:13:00;13.70;99.90
56725;DHT22;42608;52.776;6.968;2022-10-29T02:15:36;13.60;99.90
56725;DHT22;42608;52.776;6.968;2022-10-29T02:18:04;13.50;99.90
56725;DHT22;42608;52.776;6.968;2022-10-29T02:20:30;13.50;99.90
56725;DHT22;42608;52.776;6.968;2022-10-29T02:22:56;13.50;99.90
56725;DHT22;42608;52.776;6.968;2022-10-29T02:25:22;13.50;99.90
56725;DHT22;42608;52.776;6.968;2022-10-29T02:27:47;13.40;99.90
56725;DHT22;42608;52.776;6.968;2022-10-29T02:30:13;13.30;99.90
56725;DHT22;42608;52.776;6.968;2022-10-29T02:32:39;13.30;99.90
56725;DHT22;42608;52.776;6.968;2022-10-29T02:35:05;13.20;99.90
56725;DHT22;42608;52.776;6.968;2022-10-29T02:37:31;13.20;99.90
56725;DHT22;42608;52.776;6.968;2022-10-29T02:39:56;13.10;99.90
56725;DHT22;42608;52.776;6.968;2022-10-29T02:42:22;13.10;99.90
56725;DHT22;42608;52.776;6.968;2022-10-29T02:44:47;13.10;99.90
56725;DHT22;42608;52.776;6.968;2022-10-29T02:47:13;13.00;99.90
56725;DHT22;42608;52.776;6.968;2022-10-29T02:49:39;13.00;99.90
56725;DHT22;42608;52.776;6.968;2022-10-29T02:52:04;13.00;99.90
56725;DHT22;42608;52.776;6.968;2022-10-29T02:54:30;13.00;99.90
56725;DHT22;42608;52.776;6.968;2022-10-29T02:56:55;13.00;99.90
56725;DHT22;42608;52.776;6.968;2022-10-29T02:59:21;13.00;99.90
56725;DHT22;42608;52.776;6.968;2022-10-29T03:01:47;13.00;99.90
56725;DHT22;42608;52.776;6.968;2022-10-29T03:04:12;13.00;99.90
56725;DHT22;42608;52.776;6.968;2022-10-29T03:06:38;12.90;99.90
56725;DHT22;42608;52.776;6.968;2022-10-29T03:09:03;12.90;99.90
56725;DHT22;42608;52.776;6.968;2022-10-29T03:11:32;12.90;99.90
56725;DHT22;42608;52.776;6.968;2022-10-29T03:13:57;12.90;99.90
56725;DHT22;42608;52.776;6.968;2022-10-29T03:16:23;12.90;99.90
56725;DHT22;42608;52.776;6.968;2022-10-29T03:18:48;12.90;99.90
56725;DHT22;42608;52.776;6.968;2022-10-29T03:21:14;12.80;99.90
56725;DHT22;42608;52.776;6.968;2022-10-29T03:23:39;12.80;99.90
56725;DHT22;42608;52.776;6.968;2022-10-29T03:26:05;12.80;99.90
56725;DHT22;42608;52.776;6.968;2022-10-29T03:28:31;12.80;99.90
56725;DHT22;42608;52.776;6.968;2022-10-29T03:30:56;12.80;99.90
56725;DHT22;42608;52.776;6.968;2022-10-29T03:33:22;12.80;99.90
56725;DHT22;42608;52.776;6.968;2022-10-29T03:35:54;12.70;99.90
56725;DHT22;42608;52.776;6.968;2022-10-29T03:38:19;12.70;99.90
56725;DHT22;42608;52.776;6.968;2022-10-29T03:40:45;12.80;99.90
56725;DHT22;42608;52.776;6.968;2022-10-29T03:43:10;12.80;99.90
56725;DHT22;42608;52.776;6.968;2022-10-29T03:45:36;12.70;99.90
56725;DHT22;42608;52.776;6.968;2022-10-29T03:48:02;12.70;99.90
56725;DHT22;42608;52.776;6.968;2022-10-29T03:50:28;12.70;99.90
56725;DHT22;42608;52.776;6.968;2022-10-29T03:52:53;12.70;99.90
56725;DHT22;42608;52.776;6.968;2022-10-29T03:55:19;12.70;99.90
56725;DHT22;42608;52.776;6.968;2022-10-29T03:57:44;12.70;99.90
56725;DHT22;42608;52.776;6.968;2022-10-29T04:00:10;12.70;99.90
56725;DHT22;42608;52.776;6.968;2022-10-29T04:02:36;12.60;99.90
56725;DHT22;42608;52.776;6.968;2022-10-29T04:05:01;12.70;99.90
56725;DHT22;42608;52.776;6.968;2022-10-29T04:07:27;12.60;99.90
56725;DHT22;42608;52.776;6.968;2022-10-29T04:09:52;12.60;99.90
56725;DHT22;42608;52.776;6.968;2022-10-29T04:12:18;12.60;99.90
56725;DHT22;42608;52.776;6.968;2022-10-29T04:14:43;12.60;99.90
56725;DHT22;42608;52.776;6.968;2022-10-29T04:17:10;12.50;99.90
56725;DHT22;42608;52.776;6.968;2022-10-29T04:19:36;12.60;99.90
56725;DHT22;42608;52.776;6.968;2022-10-29T04:22:01;12.50;99.90
56725;DHT22;42608;52.776;6.968;2022-10-29T04:24:27;12.50;99.90
56725;DHT22;42608;52.776;6.968;2022-10-29T04:26:52;12.50;99.90
56725;DHT22;42608;52.776;6.968;2022-10-29T04:29:18;12.50;99.90
56725;DHT22;42608;52.776;6.968;2022-10-29T04:31:43;12.50;99.90
56725;DHT22;42608;52.776;6.968;2022-10-29T04:34:09;12.50;99.90
56725;DHT22;42608;52.776;6.968;2022-10-29T04:36:34;12.50;99.90
56725;DHT22;42608;52.776;6.968;2022-10-29T04:39:00;12.50;99.90
56725;DHT22;42608;52.776;6.968;2022-10-29T04:41:26;12.50;99.90
56725;DHT22;42608;52.776;6.968;2022-10-29T04:43:51;12.50;99.90
56725;DHT22;42608;52.776;6.968;2022-10-29T04:46:17;12.50;99.90
56725;DHT22;42608;52.776;6.968;2022-10-29T04:48:42;12.50;99.90
56725;DHT22;42608;52.776;6.968;2022-10-29T04:51:15;12.50;99.90
56725;DHT22;42608;52.776;6.968;2022-10-29T04:53:42;12.50;99.90
56725;DHT22;42608;52.776;6.968;2022-10-29T04:56:07;12.50;99.90
56725;DHT22;42608;52.776;6.968;2022-10-29T04:58:33;12.50;99.90
56725;DHT22;42608;52.776;6.968;2022-10-29T05:01:03;12.50;99.90
56725;DHT22;42608;52.776;6.968;2022-10-29T05:03:29;12.50;99.90
56725;DHT22;42608;52.776;6.968;2022-10-29T05:05:55;12.40;99.90
56725;DHT22;42608;52.776;6.968;2022-10-29T05:08:21;12.40;99.90
56725;DHT22;42608;52.776;6.968;2022-10-29T05:10:46;12.40;99.90
56725;DHT22;42608;52.776;6.968;2022-10-29T05:13:12;12.40;99.90
56725;DHT22;42608;52.776;6.968;2022-10-29T05:15:38;12.40;99.90
56725;DHT22;42608;52.776;6.968;2022-10-29T05:18:04;12.50;99.90
56725;DHT22;42608;52.776;6.968;2022-10-29T05:20:29;12.50;99.90
56725;DHT22;42608;52.776;6.968;2022-10-29T05:23:02;12.50;99.90
56725;DHT22;42608;52.776;6.968;2022-10-29T05:25:31;12.50;99.90
56725;DHT22;42608;52.776;6.968;2022-10-29T05:28:04;12.50;99.90
56725;DHT22;42608;52.776;6.968;2022-10-29T05:30:30;12.50;99.90
56725;DHT22;42608;52.776;6.968;2022-10-29T05:32:56;12.50;99.90
56725;DHT22;42608;52.776;6.968;2022-10-29T05:35:21;12.60;99.90
56725;DHT22;42608;52.776;6.968;2022-10-29T05:37:53;12.60;99.90
56725;DHT22;42608;52.776;6.968;2022-10-29T05:40:19;12.60;99.90
56725;DHT22;42608;52.776;6.968;2022-10-29T05:42:45;12.60;99.90
56725;DHT22;42608;52.776;6.968;2022-10-29T05:45:11;12.60;99.90
56725;DHT22;42608;52.776;6.968;2022-10-29T05:47:36;12.60;99.90
56725;DHT22;42608;52.776;6.968;2022-10-29T05:50:02;12.60;99.90
56725;DHT22;42608;52.776;6.968;2022-10-29T05:52:28;12.60;99.90
56725;DHT22;42608;52.776;6.968;2022-10-29T05:54:53;12.60;99.90
56725;DHT22;42608;52.776;6.968;2022-10-29T05:57:19;12.60;99.90
56725;DHT22;42608;52.776;6.968;2022-10-29T05:59:45;12.60;99.90
56725;DHT22;42608;52.776;6.968;2022-10-29T06:02:11;12.50;99.90
56725;DHT22;42608;52.776;6.968;2022-10-29T06:04:36;12.50;99.90
56725;DHT22;42608;52.776;6.968;2022-10-29T06:07:02;12.50;99.90
56725;DHT22;42608;52.776;6.968;2022-10-29T06:09:27;12.50;99.90
56725;DHT22;42608;52.776;6.968;2022-10-29T06:11:53;12.50;99.90
56725;DHT22;42608;52.776;6.968;2022-10-29T06:14:19;12.50;99.90
56725;DHT22;42608;52.776;6.968;2022-10-29T06:16:44;12.50;99.90
56725;DHT22;42608;52.776;6.968;2022-10-29T06:19:10;12.50;99.90
56725;DHT22;42608;52.776;6.968;2022-10-29T06:21:35;12.40;99.90
56725;DHT22;42608;52.776;6.968;2022-10-29T06:24:01;12.50;99.90
56725;DHT22;42608;52.776;6.968;2022-10-29T06:26:27;12.50;99.90
56725;DHT22;42608;52.776;6.968;2022-10-29T06:28:52;12.50;99.90
56725;DHT22;42608;52.776;6.968;2022-10-29T06:31:18;12.50;99.90
56725;DHT22;42608;52.776;6.968;2022-10-29T06:33:43;12.50;99.90
56725;DHT22;42608;52.776;6.968;2022-10-29T06:36:09;12.50;99.90
56725;DHT22;42608;52.776;6.968;2022-10-29T06:38:34;12.50;99.90
56725;DHT22;42608;52.776;6.968;2022-10-29T06:41:00;12.50;99.90
56725;DHT22;42608;52.776;6.968;2022-10-29T06:43:25;12.40;99.90
56725;DHT22;42608;52.776;6.968;2022-10-29T06:45:51;12.40;99.90
56725;DHT22;42608;52.776;6.968;2022-10-29T06:48:16;12.40;99.90
56725;DHT22;42608;52.776;6.968;2022-10-29T06:50:42;12.40;99.90
56725;DHT22;42608;52.776;6.968;2022-10-29T06:53:08;12.40;99.90
56725;DHT22;42608;52.776;6.968;2022-10-29T06:55:35;12.40;99.90
56725;DHT22;42608;52.776;6.968;2022-10-29T06:58:02;12.40;99.90
56725;DHT22;42608;52.776;6.968;2022-10-29T07:00:28;12.40;99.90
56725;DHT22;42608;52.776;6.968;2022-10-29T07:02:54;12.40;99.90
56725;DHT22;42608;52.776;6.968;2022-10-29T07:05:20;12.50;99.90
56725;DHT22;42608;52.776;6.968;2022-10-29T07:07:45;12.50;99.90
56725;DHT22;42608;52.776;6.968;2022-10-29T07:10:11;12.50;99.90
56725;DHT22;42608;52.776;6.968;2022-10-29T07:12:43;12.50;99.90
56725;DHT22;42608;52.776;6.968;2022-10-29T07:15:09;12.60;99.90
56725;DHT22;42608;52.776;6.968;2022-10-29T07:17:35;12.60;99.90
56725;DHT22;42608;52.776;6.968;2022-10-29T07:20:04;12.60;99.90
56725;DHT22;42608;52.776;6.968;2022-10-29T07:22:30;12.60;99.90
56725;DHT22;42608;52.776;6.968;2022-10-29T07:24:55;12.60;99.90
56725;DHT22;42608;52.776;6.968;2022-10-29T07:27:21;12.60;99.90
56725;DHT22;42608;52.776;6.968;2022-10-29T07:29:46;12.70;99.90
56725;DHT22;42608;52.776;6.968;2022-10-29T07:32:12;12.70;99.90
56725;DHT22;42608;52.776;6.968;2022-10-29T07:34:37;12.70;99.90
56725;DHT22;42608;52.776;6.968;2022-10-29T07:37:03;12.70;99.90
56725;DHT22;42608;52.776;6.968;2022-10-29T07:39:28;12.70;99.90
56725;DHT22;42608;52.776;6.968;2022-10-29T07:41:54;12.70;99.90
56725;DHT22;42608;52.776;6.968;2022-10-29T07:44:20;12.70;99.90
56725;DHT22;42608;52.776;6.968;2022-10-29T07:46:45;12.80;99.90
56725;DHT22;42608;52.776;6.968;2022-10-29T07:49:11;12.80;99.90
56725;DHT22;42608;52.776;6.968;2022-10-29T07:51:36;12.80;99.90
56725;DHT22;42608;52.776;6.968;2022-10-29T07:54:02;12.80;99.90
56725;DHT22;42608;52.776;6.968;2022-10-29T07:56:27;12.80;99.90
56725;DHT22;42608;52.776;6.968;2022-10-29T07:58:53;12.90;99.90
56725;DHT22;42608;52.776;6.968;2022-10-29T08:01:18;12.90;99.90
56725;DHT22;42608;52.776;6.968;2022-10-29T08:03:44;12.90;99.90
56725;DHT22;42608;52.776;6.968;2022-10-29T08:06:10;13.00;99.90
56725;DHT22;42608;52.776;6.968;2022-10-29T08:08:35;13.00;99.90
56725;DHT22;42608;52.776;6.968;2022-10-29T08:11:01;13.00;99.90
56725;DHT22;42608;52.776;6.968;2022-10-29T08:13:27;13.10;99.90
56725;DHT22;42608;52.776;6.968;2022-10-29T08:15:53;13.10;99.90
56725;DHT22;42608;52.776;6.968;2022-10-29T08:18:18;13.20;99.90
56725;DHT22;42608;52.776;6.968;2022-10-29T08:20:44;13.20;99.90
56725;DHT22;42608;52.776;6.968;2022-10-29T08:23:10;13.30;99.90
56725;DHT22;42608;52.776;6.968;2022-10-29T08:25:35;13.40;99.90
56725;DHT22;42608;52.776;6.968;2022-10-29T08:28:06;13.40;99.90
56725;DHT22;42608;52.776;6.968;2022-10-29T08:30:32;13.50;99.90
56725;DHT22;42608;52.776;6.968;2022-10-29T08:32:58;13.50;99.90
56725;DHT22;42608;52.776;6.968;2022-10-29T08:35:24;13.60;99.90
56725;DHT22;42608;52.776;6.968;2022-10-29T08:37:49;13.60;99.90
56725;DHT22;42608;52.776;6.968;2022-10-29T08:45:24;13.70;99.90
56725;DHT22;42608;52.776;6.968;2022-10-29T08:50:32;13.90;99.90
56725;DHT22;42608;52.776;6.968;2022-10-29T08:53:01;13.90;99.90
56725;DHT22;42608;52.776;6.968;2022-10-29T08:55:36;14.00;99.90
56725;DHT22;42608;52.776;6.968;2022-10-29T08:58:10;14.00;99.90
56725;DHT22;42608;52.776;6.968;2022-10-29T09:00:37;14.10;99.90
56725;DHT22;42608;52.776;6.968;2022-10-29T09:03:12;14.20;99.90
56725;DHT22;42608;52.776;6.968;2022-10-29T09:06:03;14.30;99.90
56725;DHT22;42608;52.776;6.968;2022-10-29T09:08:32;14.30;99.90
56725;DHT22;42608;52.776;6.968;2022-10-29T09:11:03;14.40;99.90
56725;DHT22;42608;52.776;6.968;2022-10-29T09:16:20;14.50;99.90
56725;DHT22;42608;52.776;6.968;2022-10-29T09:19:01;14.60;99.90
56725;DHT22;42608;52.776;6.968;2022-10-29T09:24:11;14.70;99.90
56725;DHT22;42608;52.776;6.968;2022-10-29T09:31:47;14.90;99.90
56725;DHT22;42608;52.776;6.968;2022-10-29T09:34:24;14.90;99.90
56725;DHT22;42608;52.776;6.968;2022-10-29T09:36:52;15.00;99.90
56725;DHT22;42608;52.776;6.968;2022-10-29T09:39:31;15.10;99.90
56725;DHT22;42608;52.776;6.968;2022-10-29T09:41:57;15.10;99.90
56725;DHT22;42608;52.776;6.968;2022-10-29T09:44:26;15.20;99.90
56725;DHT22;42608;52.776;6.968;2022-10-29T09:47:10;15.30;99.90
56725;DHT22;42608;52.776;6.968;2022-10-29T09:52:08;15.40;99.90
56725;DHT22;42608;52.776;6.968;2022-10-29T09:54:37;15.50;99.90
56725;DHT22;42608;52.776;6.968;2022-10-29T09:57:03;15.60;99.90
56725;DHT22;42608;52.776;6.968;2022-10-29T10:01:55;15.70;99.90
56725;DHT22;42608;52.776;6.968;2022-10-29T10:04:31;15.80;99.90
56725;DHT22;42608;52.776;6.968;2022-10-29T10:07:07;15.80;99.90
56725;DHT22;42608;52.776;6.968;2022-10-29T10:12:18;15.90;99.90
56725;DHT22;42608;52.776;6.968;2022-10-29T10:14:44;15.90;99.90
56725;DHT22;42608;52.776;6.968;2022-10-29T10:17:10;16.00;99.90
56725;DHT22;42608;52.776;6.968;2022-10-29T10:19:35;16.00;99.90
56725;DHT22;42608;52.776;6.968;2022-10-29T10:22:09;16.00;99.90
56725;DHT22;42608;52.776;6.968;2022-10-29T10:24:40;16.10;99.90
56725;DHT22;42608;52.776;6.968;2022-10-29T10:29:42;16.20;99.90
56725;DHT22;42608;52.776;6.968;2022-10-29T10:32:09;16.30;99.90
56725;DHT22;42608;52.776;6.968;2022-10-29T10:34:35;16.30;99.90
56725;DHT22;42608;52.776;6.968;2022-10-29T10:37:02;16.40;99.90
56725;DHT22;42608;52.776;6.968;2022-10-29T10:39:29;16.50;99.90
56725;DHT22;42608;52.776;6.968;2022-10-29T10:41:56;16.50;99.90
56725;DHT22;42608;52.776;6.968;2022-10-29T10:44:22;16.60;99.90
56725;DHT22;42608;52.776;6.968;2022-10-29T10:46:48;16.60;99.90
56725;DHT22;42608;52.776;6.968;2022-10-29T10:49:16;16.60;99.90
56725;DHT22;42608;52.776;6.968;2022-10-29T10:51:43;16.70;99.90
56725;DHT22;42608;52.776;6.968;2022-10-29T10:54:53;16.70;99.90
56725;DHT22;42608;52.776;6.968;2022-10-29T10:57:02;16.80;99.90
56725;DHT22;42608;52.776;6.968;2022-10-29T10:59:30;16.80;99.90
56725;DHT22;42608;52.776;6.968;2022-10-29T11:01:57;16.80;99.90
56725;DHT22;42608;52.776;6.968;2022-10-29T11:04:28;16.90;99.90
56725;DHT22;42608;52.776;6.968;2022-10-29T11:06:58;17.00;99.90
56725;DHT22;42608;52.776;6.968;2022-10-29T11:11:56;17.10;99.90
56725;DHT22;42608;52.776;6.968;2022-10-29T11:14:31;17.10;99.90
56725;DHT22;42608;52.776;6.968;2022-10-29T11:17:02;17.10;99.90
56725;DHT22;42608;52.776;6.968;2022-10-29T11:19:44;17.20;99.90
56725;DHT22;42608;52.776;6.968;2022-10-29T11:24:42;17.30;99.90
56725;DHT22;42608;52.776;6.968;2022-10-29T11:29:56;17.30;99.90
56725;DHT22;42608;52.776;6.968;2022-10-29T11:40:06;17.40;99.90
56725;DHT22;42608;52.776;6.968;2022-10-29T11:42:36;17.50;99.90
56725;DHT22;42608;52.776;6.968;2022-10-29T11:45:03;17.50;99.90
56725;DHT22;42608;52.776;6.968;2022-10-29T11:50:08;17.50;99.90
56725;DHT22;42608;52.776;6.968;2022-10-29T11:57:57;17.60;99.90
56725;DHT22;42608;52.776;6.968;2022-10-29T12:00:23;17.60;99.90
56725;DHT22;42608;52.776;6.968;2022-10-29T12:13:02;17.80;99.90
56725;DHT22;42608;52.776;6.968;2022-10-29T12:18:41;17.90;99.90
56725;DHT22;42608;52.776;6.968;2022-10-29T12:26:40;17.90;99.90
56725;DHT22;42608;52.776;6.968;2022-10-29T12:31:54;18.00;99.90
56725;DHT22;42608;52.776;6.968;2022-10-29T12:36:48;18.10;99.90
56725;DHT22;42608;52.776;6.968;2022-10-29T12:39:20;18.10;99.90
56725;DHT22;42608;52.776;6.968;2022-10-29T12:41:48;18.20;99.90
56725;DHT22;42608;52.776;6.968;2022-10-29T12:50:01;18.30;99.90
56725;DHT22;42608;52.776;6.968;2022-10-29T12:52:44;18.30;99.90
56725;DHT22;42608;52.776;6.968;2022-10-29T12:55:11;18.30;99.90
56725;DHT22;42608;52.776;6.968;2022-10-29T12:57:37;18.30;99.90
56725;DHT22;42608;52.776;6.968;2022-10-29T13:02:47;18.30;99.90
56725;DHT22;42608;52.776;6.968;2022-10-29T13:05:13;18.30;99.90
56725;DHT22;42608;52.776;6.968;2022-10-29T13:15:39;18.50;99.90
56725;DHT22;42608;52.776;6.968;2022-10-29T13:18:24;18.50;99.90
56725;DHT22;42608;52.776;6.968;2022-10-29T13:20:51;18.60;99.90
56725;DHT22;42608;52.776;6.968;2022-10-29T13:30:40;18.70;99.90
56725;DHT22;42608;52.776;6.968;2022-10-29T13:38:41;18.80;99.90
56725;DHT22;42608;52.776;6.968;2022-10-29T13:41:16;18.90;99.90
56725;DHT22;42608;52.776;6.968;2022-10-29T13:43:50;18.80;99.90
56725;DHT22;42608;52.776;6.968;2022-10-29T13:49:05;18.80;99.90
56725;DHT22;42608;52.776;6.968;2022-10-29T13:51:40;18.80;99.90
56725;DHT22;42608;52.776;6.968;2022-10-29T13:54:09;18.70;99.90
56725;DHT22;42608;52.776;6.968;2022-10-29T13:56:41;18.70;99.90
56725;DHT22;42608;52.776;6.968;2022-10-29T13:59:11;18.70;99.90
56725;DHT22;42608;52.776;6.968;2022-10-29T14:01:47;18.70;99.90
56725;DHT22;42608;52.776;6.968;2022-10-29T14:04:19;18.70;99.90
56725;DHT22;42608;52.776;6.968;2022-10-29T14:06:46;18.70;99.90
56725;DHT22;42608;52.776;6.968;2022-10-29T14:09:31;18.70;99.90
56725;DHT22;42608;52.776;6.968;2022-10-29T14:12:01;18.70;99.90
56725;DHT22;42608;52.776;6.968;2022-10-29T14:17:09;18.80;99.90
56725;DHT22;42608;52.776;6.968;2022-10-29T14:19:35;18.80;99.90
56725;DHT22;42608;52.776;6.968;2022-10-29T14:22:00;18.90;99.90
56725;DHT22;42608;52.776;6.968;2022-10-29T14:24:26;18.90;99.90
56725;DHT22;42608;52.776;6.968;2022-10-29T14:26:52;18.90;99.90
56725;DHT22;42608;52.776;6.968;2022-10-29T14:29:29;18.90;99.90
56725;DHT22;42608;52.776;6.968;2022-10-29T14:32:04;19.00;99.90
56725;DHT22;42608;52.776;6.968;2022-10-29T14:34:30;19.00;99.90
56725;DHT22;42608;52.776;6.968;2022-10-29T14:37:00;19.00;99.90
56725;DHT22;42608;52.776;6.968;2022-10-29T14:39:29;19.00;99.90
56725;DHT22;42608;52.776;6.968;2022-10-29T14:41:56;19.00;99.90
56725;DHT22;42608;52.776;6.968;2022-10-29T14:44:29;19.00;99.90
56725;DHT22;42608;52.776;6.968;2022-10-29T14:49:22;19.00;99.90
56725;DHT22;42608;52.776;6.968;2022-10-29T14:51:53;19.00;99.90
56725;DHT22;42608;52.776;6.968;2022-10-29T14:54:36;19.00;99.90
56725;DHT22;42608;52.776;6.968;2022-10-29T14:57:08;18.90;99.90
56725;DHT22;42608;52.776;6.968;2022-10-29T14:59:35;18.90;99.90
56725;DHT22;42608;52.776;6.968;2022-10-29T15:02:03;18.90;99.90
56725;DHT22;42608;52.776;6.968;2022-10-29T15:04:30;18.90;99.90
56725;DHT22;42608;52.776;6.968;2022-10-29T15:09:41;18.80;99.90
56725;DHT22;42608;52.776;6.968;2022-10-29T15:12:14;18.90;99.90
56725;DHT22;42608;52.776;6.968;2022-10-29T15:14:46;18.90;99.90
56725;DHT22;42608;52.776;6.968;2022-10-29T15:17:15;18.90;99.90
56725;DHT22;42608;52.776;6.968;2022-10-29T15:19:42;18.80;99.90
56725;DHT22;42608;52.776;6.968;2022-10-29T15:22:20;18.80;99.90
56725;DHT22;42608;52.776;6.968;2022-10-29T15:24:48;18.80;99.90
56725;DHT22;42608;52.776;6.968;2022-10-29T15:27:14;18.70;99.90
56725;DHT22;42608;52.776;6.968;2022-10-29T15:29:43;18.70;99.90
56725;DHT22;42608;52.776;6.968;2022-10-29T15:32:11;18.70;99.90
56725;DHT22;42608;52.776;6.968;2022-10-29T15:34:39;18.70;99.90
56725;DHT22;42608;52.776;6.968;2022-10-29T15:39:57;18.60;99.90
56725;DHT22;42608;52.776;6.968;2022-10-29T15:42:24;18.60;99.90
56725;DHT22;42608;52.776;6.968;2022-10-29T15:47:35;18.60;99.90
56725;DHT22;42608;52.776;6.968;2022-10-29T15:50:01;18.50;99.90
56725;DHT22;42608;52.776;6.968;2022-10-29T15:52:30;18.50;99.90
56725;DHT22;42608;52.776;6.968;2022-10-29T15:55:00;18.40;99.90
56725;DHT22;42608;52.776;6.968;2022-10-29T15:57:26;18.40;99.90
56725;DHT22;42608;52.776;6.968;2022-10-29T15:59:52;18.40;99.90
56725;DHT22;42608;52.776;6.968;2022-10-29T16:02:22;18.30;99.90
56725;DHT22;42608;52.776;6.968;2022-10-29T16:04:49;18.30;99.90
56725;DHT22;42608;52.776;6.968;2022-10-29T16:07:15;18.20;99.90
56725;DHT22;42608;52.776;6.968;2022-10-29T16:09:47;18.20;99.90
56725;DHT22;42608;52.776;6.968;2022-10-29T16:12:13;18.20;99.90
56725;DHT22;42608;52.776;6.968;2022-10-29T16:14:38;18.10;99.90
56725;DHT22;42608;52.776;6.968;2022-10-29T16:17:17;18.10;99.90
56725;DHT22;42608;52.776;6.968;2022-10-29T16:19:43;18.10;99.90
56725;DHT22;42608;52.776;6.968;2022-10-29T16:22:13;18.00;99.90
56725;DHT22;42608;52.776;6.968;2022-10-29T16:24:39;18.00;99.90
56725;DHT22;42608;52.776;6.968;2022-10-29T16:27:23;18.00;99.90
56725;DHT22;42608;52.776;6.968;2022-10-29T16:29:48;17.90;99.90
56725;DHT22;42608;52.776;6.968;2022-10-29T16:32:14;17.90;99.90
56725;DHT22;42608;52.776;6.968;2022-10-29T16:34:40;17.90;99.90
56725;DHT22;42608;52.776;6.968;2022-10-29T16:37:09;17.80;99.90
56725;DHT22;42608;52.776;6.968;2022-10-29T16:39:36;17.80;99.90
56725;DHT22;42608;52.776;6.968;2022-10-29T16:42:02;17.80;99.90
56725;DHT22;42608;52.776;6.968;2022-10-29T16:44:27;17.80;99.90
56725;DHT22;42608;52.776;6.968;2022-10-29T16:46:53;17.80;99.90
56725;DHT22;42608;52.776;6.968;2022-10-29T16:49:18;17.70;99.90
56725;DHT22;42608;52.776;6.968;2022-10-29T16:51:44;17.70;99.90
56725;DHT22;42608;52.776;6.968;2022-10-29T16:54:09;17.70;99.90
56725;DHT22;42608;52.776;6.968;2022-10-29T16:56:35;17.70;99.90
56725;DHT22;42608;52.776;6.968;2022-10-29T16:59:00;17.70;99.90
56725;DHT22;42608;52.776;6.968;2022-10-29T17:01:26;17.70;99.90
56725;DHT22;42608;52.776;6.968;2022-10-29T17:03:52;17.60;99.90
56725;DHT22;42608;52.776;6.968;2022-10-29T17:06:17;17.60;99.90
56725;DHT22;42608;52.776;6.968;2022-10-29T17:08:43;17.60;99.90
56725;DHT22;42608;52.776;6.968;2022-10-29T17:11:08;17.60;99.90
56725;DHT22;42608;52.776;6.968;2022-10-29T17:13:34;17.60;99.90
56725;DHT22;42608;52.776;6.968;2022-10-29T17:16:04;17.50;99.90
56725;DHT22;42608;52.776;6.968;2022-10-29T17:18:30;17.50;99.90
56725;DHT22;42608;52.776;6.968;2022-10-29T17:20:57;17.50;99.90
56725;DHT22;42608;52.776;6.968;2022-10-29T17:23:23;17.50;99.90
56725;DHT22;42608;52.776;6.968;2022-10-29T17:25:52;17.50;99.90
56725;DHT22;42608;52.776;6.968;2022-10-29T17:28:19;17.40;99.90
56725;DHT22;42608;52.776;6.968;2022-10-29T17:30:44;17.40;99.90
56725;DHT22;42608;52.776;6.968;2022-10-29T17:33:10;17.40;99.90
56725;DHT22;42608;52.776;6.968;2022-10-29T17:35:37;17.40;99.90
56725;DHT22;42608;52.776;6.968;2022-10-29T17:38:03;17.40;99.90
56725;DHT22;42608;52.776;6.968;2022-10-29T17:40:28;17.40;99.90
56725;DHT22;42608;52.776;6.968;2022-10-29T17:42:54;17.30;99.90
56725;DHT22;42608;52.776;6.968;2022-10-29T17:45:19;17.30;99.90
56725;DHT22;42608;52.776;6.968;2022-10-29T17:47:47;17.30;99.90
56725;DHT22;42608;52.776;6.968;2022-10-29T17:50:12;17.30;99.90
56725;DHT22;42608;52.776;6.968;2022-10-29T17:52:38;17.20;99.90
56725;DHT22;42608;52.776;6.968;2022-10-29T17:55:04;17.30;99.90
56725;DHT22;42608;52.776;6.968;2022-10-29T17:57:29;17.20;99.90
56725;DHT22;42608;52.776;6.968;2022-10-29T17:59:55;17.20;99.90